CES6296 ZGSZ-ZBAD
Flight info
| Callsign | CES6296 |
|---|---|
| Flight time | N/A |
| Altitude | 33100 |
| Route | MIPAG W21 TEPID W22 YIN A461 BUBDA W56 ORODO W62 TEKIL G212 BELAX |
| Aircraft | A321/M-SDE3FGHIRWYZ/EB1 |
Departure
| Time | N/A |
|---|---|
| Airport | Shenzhen Bao'an International Airport (ZGSZ) |
Arrival
| Time | 2026-05-06 11:52 |
|---|---|
| Airport | Beijing Daxing International Airport (ZBAD) |
| Time | Latitude | Longitude | Altitude | Speed | Heading |
|---|---|---|---|---|---|
| 2026-05-06 10:21 | 29.76391 | 113.57968 | 32887 ft | 452 kts | 358° |
| 2026-05-06 10:22 | 29.81613 | 113.58427 | 32886 ft | 452 kts | 358° |
| 2026-05-06 10:22 | 29.87866 | 113.58981 | 32883 ft | 453 kts | 358° |
| 2026-05-06 10:23 | 29.94154 | 113.59782 | 32884 ft | 460 kts | 8° |
| 2026-05-06 10:23 | 30.00222 | 113.62388 | 32882 ft | 469 kts | 18° |
| 2026-05-06 10:24 | 30.06199 | 113.65380 | 32882 ft | 470 kts | 18° |
| 2026-05-06 10:24 | 30.12197 | 113.68378 | 32887 ft | 470 kts | 18° |
| 2026-05-06 10:25 | 30.18199 | 113.71370 | 32891 ft | 470 kts | 19° |
| 2026-05-06 10:25 | 30.24206 | 113.74370 | 32892 ft | 470 kts | 19° |
| 2026-05-06 10:26 | 30.30204 | 113.77378 | 32897 ft | 470 kts | 19° |
| 2026-05-06 10:26 | 30.36206 | 113.80396 | 32899 ft | 470 kts | 19° |
| 2026-05-06 10:27 | 30.42209 | 113.83415 | 32893 ft | 470 kts | 19° |
| 2026-05-06 10:27 | 30.48203 | 113.86431 | 32896 ft | 470 kts | 19° |
| 2026-05-06 10:28 | 30.54199 | 113.89448 | 32903 ft | 470 kts | 19° |
| 2026-05-06 10:28 | 30.59993 | 113.92365 | 32900 ft | 470 kts | 19° |
| 2026-05-06 10:29 | 30.65999 | 113.95393 | 32901 ft | 469 kts | 19° |
| 2026-05-06 10:29 | 30.71941 | 113.98411 | 32903 ft | 470 kts | 20° |
| 2026-05-06 10:30 | 30.77882 | 114.01605 | 32903 ft | 470 kts | 21° |
| 2026-05-06 10:30 | 30.83797 | 114.04869 | 32906 ft | 470 kts | 21° |
| 2026-05-06 10:31 | 30.89692 | 114.08096 | 32900 ft | 470 kts | 20° |
| 2026-05-06 10:31 | 30.95627 | 114.11307 | 32903 ft | 470 kts | 20° |
| 2026-05-06 10:32 | 31.01563 | 114.14520 | 32902 ft | 470 kts | 20° |
| 2026-05-06 10:32 | 31.07504 | 114.17744 | 32903 ft | 470 kts | 20° |
| 2026-05-06 10:33 | 31.13399 | 114.20951 | 32902 ft | 470 kts | 20° |
| 2026-05-06 10:33 | 31.19325 | 114.24181 | 32910 ft | 470 kts | 20° |
| 2026-05-06 10:34 | 31.25256 | 114.27416 | 32911 ft | 470 kts | 20° |
| 2026-05-06 10:34 | 31.31183 | 114.30653 | 32917 ft | 470 kts | 20° |
| 2026-05-06 10:35 | 31.37314 | 114.33012 | 32907 ft | 459 kts | 4° |
| 2026-05-06 10:35 | 31.43590 | 114.33418 | 32907 ft | 453 kts | 356° |
| 2026-05-06 10:36 | 31.49868 | 114.33592 | 32901 ft | 454 kts | 356° |
| 2026-05-06 10:36 | 31.56185 | 114.33776 | 32898 ft | 454 kts | 356° |
| 2026-05-06 10:37 | 31.62457 | 114.33963 | 32905 ft | 455 kts | 356° |
| 2026-05-06 10:37 | 31.68790 | 114.34151 | 32898 ft | 455 kts | 356° |
| 2026-05-06 10:38 | 31.75131 | 114.34334 | 32894 ft | 456 kts | 356° |
| 2026-05-06 10:38 | 31.81481 | 114.34520 | 32889 ft | 457 kts | 356° |
| 2026-05-06 10:39 | 31.87801 | 114.34718 | 32890 ft | 458 kts | 356° |
| 2026-05-06 10:39 | 31.94170 | 114.34920 | 32889 ft | 458 kts | 356° |
| 2026-05-06 10:40 | 32.00521 | 114.35112 | 32891 ft | 458 kts | 355° |
| 2026-05-06 10:40 | 32.06857 | 114.35300 | 32894 ft | 459 kts | 355° |
| 2026-05-06 10:41 | 32.13237 | 114.35490 | 32895 ft | 459 kts | 355° |
| 2026-05-06 10:41 | 32.19621 | 114.35680 | 32901 ft | 459 kts | 355° |
| 2026-05-06 10:42 | 32.25925 | 114.35874 | 32901 ft | 458 kts | 356° |
| 2026-05-06 10:42 | 32.32272 | 114.36312 | 32904 ft | 460 kts | 359° |
| 2026-05-06 10:43 | 32.38540 | 114.36976 | 32909 ft | 460 kts | 359° |
| 2026-05-06 10:44 | 32.48062 | 114.37939 | 32908 ft | 458 kts | 359° |
| 2026-05-06 10:44 | 32.54411 | 114.38501 | 32907 ft | 457 kts | 359° |
| 2026-05-06 10:45 | 32.60760 | 114.39073 | 32914 ft | 457 kts | 359° |
| 2026-05-06 10:45 | 32.67092 | 114.39656 | 32913 ft | 456 kts | 359° |
| 2026-05-06 10:46 | 32.73414 | 114.40230 | 32909 ft | 456 kts | 359° |
| 2026-05-06 10:46 | 32.79742 | 114.40822 | 32909 ft | 455 kts | 359° |
| 2026-05-06 10:47 | 32.86001 | 114.41414 | 32910 ft | 455 kts | 359° |
| 2026-05-06 10:47 | 32.92296 | 114.42005 | 32903 ft | 455 kts | 359° |
| 2026-05-06 10:48 | 32.98608 | 114.42597 | 32902 ft | 455 kts | 359° |
| 2026-05-06 10:48 | 33.04868 | 114.43182 | 32899 ft | 454 kts | 359° |
| 2026-05-06 10:49 | 33.11175 | 114.43775 | 32903 ft | 454 kts | 359° |
| 2026-05-06 10:49 | 33.17474 | 114.44366 | 32900 ft | 454 kts | 359° |
| 2026-05-06 10:50 | 33.23725 | 114.44949 | 32899 ft | 454 kts | 359° |
| 2026-05-06 10:50 | 33.30023 | 114.45538 | 32899 ft | 454 kts | 359° |
| 2026-05-06 10:51 | 33.36320 | 114.46133 | 32900 ft | 454 kts | 359° |
| 2026-05-06 10:51 | 33.42586 | 114.46722 | 32897 ft | 454 kts | 359° |
| 2026-05-06 10:52 | 33.48894 | 114.47313 | 32894 ft | 454 kts | 359° |
| 2026-05-06 10:52 | 33.55202 | 114.47907 | 32899 ft | 454 kts | 359° |
| 2026-05-06 10:53 | 33.61501 | 114.48502 | 32901 ft | 454 kts | 359° |
| 2026-05-06 10:53 | 33.67794 | 114.49037 | 32903 ft | 453 kts | 358° |
| 2026-05-06 10:54 | 33.74090 | 114.49523 | 32904 ft | 453 kts | 359° |
| 2026-05-06 10:54 | 33.80110 | 114.50152 | 32903 ft | 454 kts | 360° |
| 2026-05-06 10:55 | 33.86408 | 114.50865 | 32901 ft | 454 kts | 359° |
| 2026-05-06 10:55 | 33.92704 | 114.51483 | 32899 ft | 454 kts | 359° |
| 2026-05-06 10:56 | 33.99003 | 114.52048 | 32897 ft | 454 kts | 358° |
| 2026-05-06 10:56 | 34.05302 | 114.52617 | 32897 ft | 455 kts | 359° |
| 2026-05-06 10:57 | 34.11613 | 114.53218 | 32895 ft | 455 kts | 359° |
| 2026-05-06 10:57 | 34.17935 | 114.53820 | 32893 ft | 455 kts | 359° |
| 2026-05-06 10:58 | 34.24256 | 114.54424 | 32893 ft | 456 kts | 359° |
| 2026-05-06 10:58 | 34.30539 | 114.55020 | 32896 ft | 456 kts | 359° |
| 2026-05-06 10:59 | 34.36886 | 114.55628 | 32891 ft | 456 kts | 358° |
| 2026-05-06 10:59 | 34.43178 | 114.56232 | 32886 ft | 456 kts | 358° |
| 2026-05-06 11:00 | 34.49495 | 114.56839 | 32891 ft | 456 kts | 358° |
| 2026-05-06 11:00 | 34.55851 | 114.57446 | 32910 ft | 456 kts | 358° |
| 2026-05-06 11:01 | 34.62178 | 114.58058 | 32907 ft | 456 kts | 358° |
| 2026-05-06 11:01 | 34.68503 | 114.58677 | 32906 ft | 455 kts | 358° |
| 2026-05-06 11:02 | 34.74821 | 114.59296 | 32914 ft | 455 kts | 358° |
| 2026-05-06 11:02 | 34.81127 | 114.59910 | 32914 ft | 454 kts | 358° |
| 2026-05-06 11:03 | 34.87415 | 114.60516 | 32908 ft | 453 kts | 358° |
| 2026-05-06 11:03 | 34.93656 | 114.61129 | 32907 ft | 452 kts | 358° |
| 2026-05-06 11:04 | 34.99923 | 114.61754 | 32915 ft | 452 kts | 358° |
| 2026-05-06 11:04 | 35.06197 | 114.62368 | 32919 ft | 451 kts | 358° |
| 2026-05-06 11:05 | 35.12468 | 114.62979 | 32916 ft | 451 kts | 358° |
| 2026-05-06 11:05 | 35.18734 | 114.63596 | 32915 ft | 451 kts | 357° |
| 2026-05-06 11:06 | 35.24973 | 114.64198 | 32920 ft | 451 kts | 357° |
| 2026-05-06 11:06 | 35.31247 | 114.64805 | 32927 ft | 452 kts | 357° |
| 2026-05-06 11:07 | 35.37517 | 114.65404 | 32921 ft | 452 kts | 357° |
| 2026-05-06 11:07 | 35.43803 | 114.65995 | 32920 ft | 453 kts | 357° |
| 2026-05-06 11:08 | 35.50094 | 114.66586 | 32925 ft | 454 kts | 357° |
| 2026-05-06 11:08 | 35.56397 | 114.67181 | 32927 ft | 454 kts | 357° |
| 2026-05-06 11:09 | 35.62659 | 114.67781 | 32929 ft | 455 kts | 357° |
| 2026-05-06 11:09 | 35.68974 | 114.68392 | 32933 ft | 455 kts | 357° |
| 2026-05-06 11:10 | 35.74272 | 114.68898 | 32937 ft | 456 kts | 356° |
| 2026-05-06 11:10 | 35.80601 | 114.69497 | 32942 ft | 457 kts | 356° |
| 2026-05-06 11:11 | 35.86937 | 114.70109 | 32947 ft | 457 kts | 356° |
| 2026-05-06 11:11 | 35.93275 | 114.70712 | 32951 ft | 457 kts | 356° |
| 2026-05-06 11:12 | 35.99578 | 114.71316 | 32955 ft | 457 kts | 356° |
| 2026-05-06 11:12 | 36.05935 | 114.71934 | 32966 ft | 458 kts | 356° |
| 2026-05-06 11:13 | 36.12324 | 114.72546 | 32968 ft | 458 kts | 356° |
| 2026-05-06 11:13 | 36.18648 | 114.73157 | 32967 ft | 459 kts | 356° |
| 2026-05-06 11:14 | 36.25000 | 114.73784 | 32970 ft | 459 kts | 355° |
| 2026-05-06 11:14 | 36.31383 | 114.74417 | 32974 ft | 460 kts | 355° |
| 2026-05-06 11:15 | 36.37759 | 114.74999 | 32981 ft | 455 kts | 351° |
| 2026-05-06 11:15 | 36.44040 | 114.74736 | 32892 ft | 447 kts | 348° |
| 2026-05-06 11:15 | 36.47136 | 114.74596 | 32270 ft | 445 kts | 348° |
| 2026-05-06 11:16 | 36.50236 | 114.74453 | 31528 ft | 446 kts | 349° |
| 2026-05-06 11:16 | 36.53278 | 114.74311 | 31128 ft | 445 kts | 349° |
| 2026-05-06 11:16 | 36.56356 | 114.74166 | 30965 ft | 448 kts | 349° |
| 2026-05-06 11:17 | 36.62610 | 114.73877 | 30997 ft | 450 kts | 349° |
| 2026-05-06 11:17 | 36.68877 | 114.73602 | 30999 ft | 450 kts | 349° |
| 2026-05-06 11:18 | 36.75154 | 114.73431 | 30999 ft | 457 kts | 355° |
| 2026-05-06 11:18 | 36.78338 | 114.74028 | 31002 ft | 469 kts | 6° |
| 2026-05-06 11:18 | 36.81457 | 114.75350 | 31002 ft | 480 kts | 17° |
| 2026-05-06 11:19 | 36.87526 | 114.78908 | 31000 ft | 482 kts | 18° |
| 2026-05-06 11:19 | 36.93600 | 114.82452 | 31005 ft | 482 kts | 17° |
| 2026-05-06 11:20 | 36.99642 | 114.85961 | 31001 ft | 482 kts | 17° |
| 2026-05-06 11:20 | 37.05720 | 114.89507 | 31007 ft | 482 kts | 17° |
| 2026-05-06 11:21 | 37.11797 | 114.93060 | 31014 ft | 482 kts | 17° |
| 2026-05-06 11:21 | 37.17867 | 114.96617 | 31017 ft | 481 kts | 17° |
| 2026-05-06 11:22 | 37.23929 | 115.00180 | 31016 ft | 480 kts | 17° |
| 2026-05-06 11:22 | 37.29975 | 115.03736 | 31006 ft | 480 kts | 17° |
| 2026-05-06 11:23 | 37.36025 | 115.07302 | 31008 ft | 480 kts | 17° |
| 2026-05-06 11:23 | 37.41980 | 115.10809 | 31006 ft | 480 kts | 17° |
| 2026-05-06 11:24 | 37.48113 | 115.14438 | 31003 ft | 480 kts | 18° |
| 2026-05-06 11:24 | 37.54172 | 115.18036 | 30981 ft | 481 kts | 18° |
| 2026-05-06 11:25 | 37.60232 | 115.21627 | 30968 ft | 482 kts | 18° |
| 2026-05-06 11:25 | 37.66310 | 115.25229 | 30964 ft | 483 kts | 18° |
| 2026-05-06 11:26 | 37.72372 | 115.28838 | 30966 ft | 485 kts | 18° |
| 2026-05-06 11:26 | 37.78568 | 115.32184 | 30961 ft | 477 kts | 8° |
| 2026-05-06 11:26 | 37.81786 | 115.33109 | 30742 ft | 472 kts | 360° |
| 2026-05-06 11:27 | 37.85019 | 115.33420 | 30015 ft | 471 kts | 351° |
| 2026-05-06 11:27 | 37.88280 | 115.33095 | 28909 ft | 473 kts | 346° |
| 2026-05-06 11:27 | 37.91562 | 115.32631 | 28165 ft | 472 kts | 345° |
| 2026-05-06 11:27 | 37.94762 | 115.32147 | 27468 ft | 468 kts | 345° |
| 2026-05-06 11:28 | 37.97992 | 115.31650 | 26749 ft | 464 kts | 345° |
| 2026-05-06 11:28 | 38.01178 | 115.31175 | 26075 ft | 459 kts | 346° |
| 2026-05-06 11:28 | 38.04344 | 115.30719 | 25420 ft | 455 kts | 346° |
| 2026-05-06 11:28 | 38.07461 | 115.30281 | 24758 ft | 450 kts | 346° |
| 2026-05-06 11:29 | 38.10556 | 115.29847 | 24134 ft | 445 kts | 346° |
| 2026-05-06 11:29 | 38.13575 | 115.29415 | 23517 ft | 439 kts | 346° |
| 2026-05-06 11:29 | 38.16590 | 115.28975 | 22789 ft | 434 kts | 346° |
| 2026-05-06 11:29 | 38.19574 | 115.28534 | 22055 ft | 429 kts | 346° |
| 2026-05-06 11:30 | 38.22532 | 115.28087 | 21343 ft | 424 kts | 346° |
| 2026-05-06 11:30 | 38.25434 | 115.27650 | 20650 ft | 419 kts | 346° |
| 2026-05-06 11:30 | 38.28305 | 115.27225 | 19970 ft | 413 kts | 347° |
| 2026-05-06 11:30 | 38.31161 | 115.26882 | 19307 ft | 412 kts | 353° |
| 2026-05-06 11:31 | 38.34015 | 115.27380 | 18789 ft | 417 kts | 11° |
| 2026-05-06 11:31 | 38.36669 | 115.28850 | 18611 ft | 423 kts | 22° |
| 2026-05-06 11:31 | 38.39201 | 115.30519 | 18401 ft | 414 kts | 22° |
| 2026-05-06 11:31 | 38.41752 | 115.32229 | 18176 ft | 410 kts | 22° |
| 2026-05-06 11:32 | 38.44263 | 115.33925 | 17911 ft | 408 kts | 22° |
| 2026-05-06 11:32 | 38.46748 | 115.35603 | 17649 ft | 406 kts | 22° |
| 2026-05-06 11:32 | 38.49237 | 115.37283 | 17387 ft | 404 kts | 22° |
| 2026-05-06 11:32 | 38.51702 | 115.38945 | 17122 ft | 402 kts | 22° |
| 2026-05-06 11:33 | 38.54165 | 115.40607 | 16873 ft | 400 kts | 22° |
| 2026-05-06 11:33 | 38.56623 | 115.42262 | 16616 ft | 398 kts | 22° |
| 2026-05-06 11:33 | 38.59000 | 115.43862 | 16372 ft | 396 kts | 22° |
| 2026-05-06 11:33 | 38.61300 | 115.45413 | 16128 ft | 395 kts | 22° |
| 2026-05-06 11:34 | 38.63757 | 115.47071 | 15875 ft | 393 kts | 22° |
| 2026-05-06 11:34 | 38.66099 | 115.48654 | 15635 ft | 391 kts | 23° |
| 2026-05-06 11:34 | 38.68572 | 115.50347 | 15383 ft | 391 kts | 25° |
| 2026-05-06 11:34 | 38.70801 | 115.52342 | 15147 ft | 394 kts | 36° |
| 2026-05-06 11:35 | 38.72759 | 115.54827 | 14893 ft | 397 kts | 46° |
| 2026-05-06 11:35 | 38.74368 | 115.57714 | 14653 ft | 399 kts | 57° |
| 2026-05-06 11:35 | 38.75754 | 115.60733 | 14427 ft | 398 kts | 57° |
| 2026-05-06 11:35 | 38.77161 | 115.63783 | 14188 ft | 396 kts | 57° |
| 2026-05-06 11:36 | 38.78562 | 115.66812 | 13949 ft | 394 kts | 57° |
| 2026-05-06 11:36 | 38.79959 | 115.69832 | 13711 ft | 393 kts | 57° |
| 2026-05-06 11:36 | 38.81347 | 115.72835 | 13459 ft | 391 kts | 57° |
| 2026-05-06 11:36 | 38.82721 | 115.75808 | 13205 ft | 388 kts | 57° |
| 2026-05-06 11:37 | 38.84094 | 115.78775 | 12940 ft | 385 kts | 56° |
| 2026-05-06 11:37 | 38.85451 | 115.81713 | 12682 ft | 382 kts | 56° |
| 2026-05-06 11:37 | 38.86798 | 115.84639 | 12427 ft | 379 kts | 56° |
| 2026-05-06 11:37 | 38.88130 | 115.87543 | 12173 ft | 376 kts | 56° |
| 2026-05-06 11:38 | 38.89436 | 115.90396 | 11928 ft | 374 kts | 56° |
| 2026-05-06 11:38 | 38.90746 | 115.93263 | 11681 ft | 370 kts | 56° |
| 2026-05-06 11:38 | 38.92031 | 115.96073 | 11434 ft | 367 kts | 56° |
| 2026-05-06 11:38 | 38.93326 | 115.98899 | 11185 ft | 364 kts | 56° |
| 2026-05-06 11:39 | 38.94605 | 116.01691 | 10954 ft | 361 kts | 56° |
| 2026-05-06 11:39 | 38.95812 | 116.04458 | 10702 ft | 359 kts | 60° |
| 2026-05-06 11:39 | 38.96850 | 116.07377 | 10351 ft | 351 kts | 62° |
| 2026-05-06 11:39 | 38.97784 | 116.10134 | 10167 ft | 321 kts | 62° |
| 2026-05-06 11:40 | 38.98618 | 116.12659 | 9697 ft | 302 kts | 62° |
| 2026-05-06 11:40 | 38.99416 | 116.15114 | 8948 ft | 294 kts | 62° |
| 2026-05-06 11:40 | 39.00188 | 116.17516 | 8165 ft | 288 kts | 62° |
| 2026-05-06 11:40 | 39.00945 | 116.19877 | 7388 ft | 283 kts | 62° |
| 2026-05-06 11:41 | 39.01684 | 116.22188 | 6642 ft | 277 kts | 62° |
| 2026-05-06 11:41 | 39.02407 | 116.24457 | 6086 ft | 272 kts | 62° |
| 2026-05-06 11:41 | 39.03129 | 116.26723 | 5931 ft | 274 kts | 62° |
| 2026-05-06 11:41 | 39.03850 | 116.28954 | 5909 ft | 273 kts | 62° |
| 2026-05-06 11:42 | 39.04586 | 116.31213 | 5914 ft | 274 kts | 62° |
| 2026-05-06 11:42 | 39.05325 | 116.33473 | 5912 ft | 274 kts | 62° |
| 2026-05-06 11:42 | 39.06061 | 116.35743 | 5910 ft | 274 kts | 62° |
| 2026-05-06 11:42 | 39.06790 | 116.38004 | 5910 ft | 274 kts | 62° |
| 2026-05-06 11:43 | 39.07516 | 116.40268 | 5912 ft | 273 kts | 63° |
| 2026-05-06 11:43 | 39.08218 | 116.42455 | 5902 ft | 256 kts | 62° |
| 2026-05-06 11:43 | 39.08981 | 116.44398 | 5909 ft | 230 kts | 44° |
| 2026-05-06 11:44 | 39.11652 | 116.45459 | 5924 ft | 208 kts | 339° |
| 2026-05-06 11:44 | 39.12930 | 116.44819 | 5905 ft | 208 kts | 346° |
| 2026-05-06 11:44 | 39.14371 | 116.44563 | 5911 ft | 209 kts | 352° |
| 2026-05-06 11:44 | 39.15816 | 116.44363 | 5913 ft | 209 kts | 352° |
| 2026-05-06 11:45 | 39.17262 | 116.44146 | 5907 ft | 209 kts | 351° |
| 2026-05-06 11:45 | 39.18713 | 116.43920 | 5741 ft | 210 kts | 351° |
| 2026-05-06 11:45 | 39.20162 | 116.43693 | 5492 ft | 210 kts | 351° |
| 2026-05-06 11:45 | 39.21608 | 116.43467 | 5220 ft | 208 kts | 351° |
| 2026-05-06 11:46 | 39.23020 | 116.43246 | 4951 ft | 201 kts | 351° |
| 2026-05-06 11:46 | 39.24390 | 116.43032 | 4701 ft | 194 kts | 351° |
| 2026-05-06 11:46 | 39.25698 | 116.42827 | 4454 ft | 185 kts | 351° |
| 2026-05-06 11:46 | 39.26954 | 116.42630 | 4200 ft | 180 kts | 352° |
| 2026-05-06 11:47 | 39.28192 | 116.42436 | 3956 ft | 180 kts | 352° |
| 2026-05-06 11:47 | 39.29438 | 116.42240 | 3730 ft | 181 kts | 352° |
| 2026-05-06 11:47 | 39.30689 | 116.42044 | 3488 ft | 182 kts | 353° |
| 2026-05-06 11:47 | 39.31935 | 116.41848 | 3252 ft | 183 kts | 353° |
| 2026-05-06 11:48 | 39.33200 | 116.41649 | 3012 ft | 184 kts | 353° |
| 2026-05-06 11:48 | 39.34492 | 116.41446 | 2761 ft | 185 kts | 354° |
| 2026-05-06 11:48 | 39.35757 | 116.41248 | 2524 ft | 187 kts | 355° |
| 2026-05-06 11:48 | 39.37061 | 116.41042 | 2276 ft | 196 kts | 355° |
| 2026-05-06 11:49 | 39.38481 | 116.40821 | 2009 ft | 202 kts | 355° |
| 2026-05-06 11:49 | 39.39792 | 116.40611 | 1748 ft | 179 kts | 356° |
| 2026-05-06 11:49 | 39.40973 | 116.40424 | 1510 ft | 165 kts | 356° |
| 2026-05-06 11:49 | 39.42074 | 116.40251 | 1302 ft | 153 kts | 357° |
| 2026-05-06 11:50 | 39.43103 | 116.40089 | 1097 ft | 146 kts | 357° |
| 2026-05-06 11:50 | 39.44105 | 116.39932 | 916 ft | 143 kts | 356° |
| 2026-05-06 11:50 | 39.45083 | 116.39782 | 736 ft | 141 kts | 355° |
| 2026-05-06 11:50 | 39.46054 | 116.39629 | 567 ft | 140 kts | 354° |
| 2026-05-06 11:51 | 39.47022 | 116.39477 | 395 ft | 140 kts | 354° |
| 2026-05-06 11:51 | 39.47986 | 116.39320 | 214 ft | 140 kts | 354° |
| 2026-05-06 11:51 | 39.48941 | 116.39174 | 102 ft | 131 kts | 354° |
| 2026-05-06 11:51 | 39.49686 | 116.39056 | 104 ft | 81 kts | 352° |
| 2026-05-06 11:52 | 39.50081 | 116.38994 | 101 ft | 40 kts | 353° |
| 2026-05-06 11:52 | 39.50326 | 116.39009 | 100 ft | 23 kts | 13° |
| 2026-05-06 11:52 | 39.50416 | 116.39043 | 101 ft | 19 kts | 19° |
| 2026-05-06 11:52 | 39.50533 | 116.39097 | 104 ft | 16 kts | 19° |
| 2026-05-06 11:53 | 39.50639 | 116.39120 | 107 ft | 15 kts | 3° |
| 2026-05-06 11:53 | 39.50738 | 116.39113 | 107 ft | 12 kts | 353° |
| 2026-05-06 11:53 | 39.50748 | 116.39112 | 107 ft | 0 kts | 356° |
| 2026-05-06 11:54 | 39.50773 | 116.39108 | 107 ft | 9 kts | 353° |
| 2026-05-06 11:54 | 39.50853 | 116.39095 | 107 ft | 12 kts | 354° |
| 2026-05-06 11:54 | 39.50935 | 116.39090 | 108 ft | 11 kts | 10° |
| 2026-05-06 11:54 | 39.51008 | 116.39124 | 106 ft | 11 kts | 20° |
| 2026-05-06 11:55 | 39.51092 | 116.39164 | 108 ft | 17 kts | 20° |
| 2026-05-06 11:55 | 39.51208 | 116.39162 | 108 ft | 17 kts | 355° |
| 2026-05-06 11:55 | 39.51323 | 116.39147 | 108 ft | 17 kts | 353° |
| 2026-05-06 11:55 | 39.51440 | 116.39128 | 107 ft | 17 kts | 353° |
| 2026-05-06 11:56 | 39.51556 | 116.39109 | 107 ft | 16 kts | 352° |
| 2026-05-06 11:56 | 39.51670 | 116.39091 | 107 ft | 17 kts | 353° |
| 2026-05-06 11:56 | 39.51784 | 116.39073 | 107 ft | 16 kts | 353° |
| 2026-05-06 11:56 | 39.51898 | 116.39055 | 107 ft | 16 kts | 353° |
| 2026-05-06 11:57 | 39.52005 | 116.39038 | 108 ft | 12 kts | 353° |
| 2026-05-06 11:57 | 39.52068 | 116.39049 | 108 ft | 9 kts | 43° |
| 2026-05-06 11:57 | 39.52085 | 116.39122 | 108 ft | 10 kts | 83° |
| 2026-05-06 11:57 | 39.52099 | 116.39265 | 108 ft | 19 kts | 83° |
| 2026-05-06 11:58 | 39.52115 | 116.39436 | 108 ft | 19 kts | 83° |
| 2026-05-06 11:58 | 39.52132 | 116.39611 | 108 ft | 20 kts | 83° |
| 2026-05-06 11:58 | 39.52147 | 116.39776 | 108 ft | 14 kts | 83° |
| 2026-05-06 11:58 | 39.52140 | 116.39888 | 108 ft | 12 kts | 135° |
| 2026-05-06 11:59 | 39.52059 | 116.39911 | 108 ft | 12 kts | 174° |
| 2026-05-06 11:59 | 39.51975 | 116.39924 | 107 ft | 12 kts | 173° |
| 2026-05-06 11:59 | 39.51880 | 116.39940 | 108 ft | 17 kts | 173° |
| 2026-05-06 11:59 | 39.51761 | 116.39958 | 108 ft | 17 kts | 173° |
| 2026-05-06 12:00 | 39.51639 | 116.39975 | 109 ft | 18 kts | 172° |
| 2026-05-06 12:00 | 39.51515 | 116.39996 | 108 ft | 18 kts | 172° |
| 2026-05-06 12:00 | 39.51389 | 116.40018 | 108 ft | 18 kts | 172° |
| 2026-05-06 12:00 | 39.51262 | 116.40038 | 108 ft | 15 kts | 173° |
| 2026-05-06 12:01 | 39.51182 | 116.40050 | 107 ft | 14 kts | 173° |
| 2026-05-06 12:01 | 39.51072 | 116.40067 | 108 ft | 15 kts | 173° |
| 2026-05-06 12:01 | 39.50968 | 116.40083 | 107 ft | 15 kts | 173° |
| 2026-05-06 12:01 | 39.50860 | 116.40101 | 108 ft | 16 kts | 172° |
| 2026-05-06 12:02 | 39.50752 | 116.40118 | 108 ft | 16 kts | 173° |
| 2026-05-06 12:02 | 39.50643 | 116.40135 | 108 ft | 15 kts | 173° |
| 2026-05-06 12:02 | 39.50538 | 116.40152 | 108 ft | 15 kts | 173° |
| 2026-05-06 12:02 | 39.50429 | 116.40169 | 109 ft | 16 kts | 173° |
| 2026-05-06 12:03 | 39.50322 | 116.40186 | 109 ft | 16 kts | 173° |
| 2026-05-06 12:03 | 39.50217 | 116.40202 | 109 ft | 14 kts | 173° |
| 2026-05-06 12:03 | 39.50138 | 116.40217 | 109 ft | 9 kts | 163° |
| 2026-05-06 12:03 | 39.50110 | 116.40273 | 109 ft | 8 kts | 76° |
| 2026-05-06 12:04 | 39.50121 | 116.40378 | 108 ft | 18 kts | 84° |
| 2026-05-06 12:04 | 39.50134 | 116.40521 | 108 ft | 12 kts | 82° |
| 2026-05-06 12:04 | 39.50144 | 116.40611 | 107 ft | 0 kts | 82° |
| 2026-05-06 12:04 | 39.50144 | 116.40613 | 107 ft | 2 kts | 82° |
| 2026-05-06 12:05 | 39.50149 | 116.40684 | 108 ft | 11 kts | 83° |
| 2026-05-06 12:05 | 39.50159 | 116.40778 | 108 ft | 10 kts | 82° |
| 2026-05-06 12:05 | 39.50168 | 116.40871 | 108 ft | 11 kts | 82° |
| 2026-05-06 12:05 | 39.50215 | 116.40925 | 108 ft | 9 kts | 19° |
| 2026-05-06 12:06 | 39.50277 | 116.40917 | 108 ft | 9 kts | 352° |
| 2026-05-06 12:06 | 39.50337 | 116.40907 | 108 ft | 9 kts | 353° |
| 2026-05-06 12:06 | 39.50395 | 116.40898 | 108 ft | 8 kts | 353° |
| 2026-05-06 12:06 | 39.50452 | 116.40889 | 107 ft | 8 kts | 353° |
| 2026-05-06 12:07 | 39.50507 | 116.40891 | 108 ft | 8 kts | 9° |
| 2026-05-06 12:07 | 39.50563 | 116.40904 | 108 ft | 9 kts | 10° |
| 2026-05-06 12:07 | 39.50619 | 116.40905 | 108 ft | 8 kts | 340° |
| 2026-05-06 12:07 | 39.50644 | 116.40854 | 108 ft | 6 kts | 274° |
| 2026-05-06 12:08 | 39.50639 | 116.40808 | 108 ft | 5 kts | 288° |
| 2026-05-06 12:08 | 39.50658 | 116.40782 | 108 ft | 4 kts | 315° |
| 2026-05-06 12:08 | 39.50675 | 116.40760 | 108 ft | 3 kts | 314° |
| 2026-05-06 12:08 | 39.50688 | 116.40743 | 108 ft | 2 kts | 313° |
| 2026-05-06 12:09 | 39.50689 | 116.40742 | 108 ft | 0 kts | 313° |